<?xml version="1.0" encoding="UTF-8" standalone="no" ?>
<gpx xmlns="http://www.topografix.com/GPX/1/1" xmlns:xsi="http://www.w3.org/2001/XMLSchema-instance" xsi:schemaLocation="http://www.topografix.com/GPX/1/1 http://www.topografix.com/GPX/1/1/gpx.xsd" version="1.1" creator="VisuGPX - https://www.visugpx.com">
  <metadata>
    <name>Randonnée du 13/06/2019 à 11:10</name>
  </metadata>
  <trk>
    <name><![CDATA[Randonnée du 13/06/2019 à 11:10]]></name>
    <trkseg>
      <trkpt lat="44.79922" lon="1.61847">
        <ele>125</ele>
        <time>2019-06-13T11:10:27+02:00</time>
      </trkpt>
      <trkpt lat="44.79946" lon="1.6189">
        <ele>131</ele>
        <time>2019-06-13T11:10:28+02:00</time>
      </trkpt>
      <trkpt lat="44.79923" lon="1.61881">
        <ele>137</ele>
        <time>2019-06-13T11:10:47+02:00</time>
      </trkpt>
      <trkpt lat="44.79913" lon="1.6185">
        <ele>144</ele>
        <time>2019-06-13T11:15:13+02:00</time>
      </trkpt>
      <trkpt lat="44.7989" lon="1.61849">
        <ele>141</ele>
        <time>2019-06-13T11:15:32+02:00</time>
      </trkpt>
      <trkpt lat="44.79866" lon="1.61842">
        <ele>139</ele>
        <time>2019-06-13T11:15:59+02:00</time>
      </trkpt>
      <trkpt lat="44.79846" lon="1.61824">
        <ele>139</ele>
        <time>2019-06-13T11:16:30+02:00</time>
      </trkpt>
      <trkpt lat="44.79827" lon="1.61806">
        <ele>138</ele>
        <time>2019-06-13T11:16:51+02:00</time>
      </trkpt>
      <trkpt lat="44.79807" lon="1.61787">
        <ele>138</ele>
        <time>2019-06-13T11:17:12+02:00</time>
      </trkpt>
      <trkpt lat="44.79787" lon="1.61771">
        <ele>137</ele>
        <time>2019-06-13T11:17:32+02:00</time>
      </trkpt>
      <trkpt lat="44.79769" lon="1.61749">
        <ele>136</ele>
        <time>2019-06-13T11:17:55+02:00</time>
      </trkpt>
      <trkpt lat="44.79753" lon="1.61726">
        <ele>136</ele>
        <time>2019-06-13T11:18:16+02:00</time>
      </trkpt>
      <trkpt lat="44.79736" lon="1.61704">
        <ele>136</ele>
        <time>2019-06-13T11:18:44+02:00</time>
      </trkpt>
      <trkpt lat="44.79719" lon="1.61683">
        <ele>135</ele>
        <time>2019-06-13T11:19:01+02:00</time>
      </trkpt>
      <trkpt lat="44.79705" lon="1.61657">
        <ele>135</ele>
        <time>2019-06-13T11:19:21+02:00</time>
      </trkpt>
      <trkpt lat="44.79695" lon="1.61626">
        <ele>135</ele>
        <time>2019-06-13T11:19:42+02:00</time>
      </trkpt>
      <trkpt lat="44.79683" lon="1.61596">
        <ele>136</ele>
        <time>2019-06-13T11:20:58+02:00</time>
      </trkpt>
      <trkpt lat="44.79674" lon="1.61567">
        <ele>137</ele>
        <time>2019-06-13T11:21:19+02:00</time>
      </trkpt>
      <trkpt lat="44.79664" lon="1.61538">
        <ele>138</ele>
        <time>2019-06-13T11:21:37+02:00</time>
      </trkpt>
      <trkpt lat="44.79653" lon="1.6151">
        <ele>139</ele>
        <time>2019-06-13T11:21:56+02:00</time>
      </trkpt>
      <trkpt lat="44.7964" lon="1.61484">
        <ele>137</ele>
        <time>2019-06-13T11:22:16+02:00</time>
      </trkpt>
      <trkpt lat="44.7963" lon="1.61455">
        <ele>137</ele>
        <time>2019-06-13T11:22:35+02:00</time>
      </trkpt>
      <trkpt lat="44.79624" lon="1.61424">
        <ele>137</ele>
        <time>2019-06-13T11:22:55+02:00</time>
      </trkpt>
      <trkpt lat="44.7962" lon="1.61393">
        <ele>136</ele>
        <time>2019-06-13T11:23:17+02:00</time>
      </trkpt>
      <trkpt lat="44.79623" lon="1.61361">
        <ele>135</ele>
        <time>2019-06-13T11:23:36+02:00</time>
      </trkpt>
      <trkpt lat="44.7963" lon="1.6133">
        <ele>135</ele>
        <time>2019-06-13T11:23:58+02:00</time>
      </trkpt>
      <trkpt lat="44.79643" lon="1.61305">
        <ele>136</ele>
        <time>2019-06-13T11:24:15+02:00</time>
      </trkpt>
      <trkpt lat="44.79655" lon="1.61278">
        <ele>137</ele>
        <time>2019-06-13T11:24:31+02:00</time>
      </trkpt>
      <trkpt lat="44.79666" lon="1.61249">
        <ele>134</ele>
        <time>2019-06-13T11:24:51+02:00</time>
      </trkpt>
      <trkpt lat="44.7968" lon="1.61224">
        <ele>135</ele>
        <time>2019-06-13T11:25:09+02:00</time>
      </trkpt>
      <trkpt lat="44.7969" lon="1.61195">
        <ele>134</ele>
        <time>2019-06-13T11:25:27+02:00</time>
      </trkpt>
      <trkpt lat="44.79698" lon="1.61165">
        <ele>134</ele>
        <time>2019-06-13T11:25:47+02:00</time>
      </trkpt>
      <trkpt lat="44.79705" lon="1.61134">
        <ele>135</ele>
        <time>2019-06-13T11:26:06+02:00</time>
      </trkpt>
      <trkpt lat="44.79707" lon="1.61102">
        <ele>133</ele>
        <time>2019-06-13T11:26:24+02:00</time>
      </trkpt>
      <trkpt lat="44.79713" lon="1.61071">
        <ele>132</ele>
        <time>2019-06-13T11:26:42+02:00</time>
      </trkpt>
      <trkpt lat="44.79722" lon="1.61041">
        <ele>132</ele>
        <time>2019-06-13T11:27:03+02:00</time>
      </trkpt>
      <trkpt lat="44.79721" lon="1.61008">
        <ele>135</ele>
        <time>2019-06-13T11:27:23+02:00</time>
      </trkpt>
      <trkpt lat="44.79707" lon="1.60983">
        <ele>139</ele>
        <time>2019-06-13T11:27:49+02:00</time>
      </trkpt>
      <trkpt lat="44.79692" lon="1.60959">
        <ele>139</ele>
        <time>2019-06-13T11:28:10+02:00</time>
      </trkpt>
      <trkpt lat="44.79676" lon="1.60935">
        <ele>141</ele>
        <time>2019-06-13T11:28:30+02:00</time>
      </trkpt>
      <trkpt lat="44.79657" lon="1.60919">
        <ele>138</ele>
        <time>2019-06-13T11:28:48+02:00</time>
      </trkpt>
      <trkpt lat="44.79639" lon="1.60899">
        <ele>136</ele>
        <time>2019-06-13T11:29:07+02:00</time>
      </trkpt>
      <trkpt lat="44.7963" lon="1.6087">
        <ele>143</ele>
        <time>2019-06-13T11:29:25+02:00</time>
      </trkpt>
      <trkpt lat="44.79609" lon="1.60857">
        <ele>140</ele>
        <time>2019-06-13T11:29:46+02:00</time>
      </trkpt>
      <trkpt lat="44.79591" lon="1.60837">
        <ele>143</ele>
        <time>2019-06-13T11:30:04+02:00</time>
      </trkpt>
      <trkpt lat="44.79572" lon="1.60816">
        <ele>144</ele>
        <time>2019-06-13T11:30:27+02:00</time>
      </trkpt>
      <trkpt lat="44.79552" lon="1.608">
        <ele>142</ele>
        <time>2019-06-13T11:30:45+02:00</time>
      </trkpt>
      <trkpt lat="44.79531" lon="1.60787">
        <ele>139</ele>
        <time>2019-06-13T11:31:03+02:00</time>
      </trkpt>
      <trkpt lat="44.79513" lon="1.60767">
        <ele>137</ele>
        <time>2019-06-13T11:31:20+02:00</time>
      </trkpt>
      <trkpt lat="44.79501" lon="1.60738">
        <ele>136</ele>
        <time>2019-06-13T11:31:39+02:00</time>
      </trkpt>
      <trkpt lat="44.79494" lon="1.60707">
        <ele>135</ele>
        <time>2019-06-13T11:31:58+02:00</time>
      </trkpt>
      <trkpt lat="44.79493" lon="1.60674">
        <ele>133</ele>
        <time>2019-06-13T11:32:18+02:00</time>
      </trkpt>
      <trkpt lat="44.79501" lon="1.60644">
        <ele>133</ele>
        <time>2019-06-13T11:32:38+02:00</time>
      </trkpt>
      <trkpt lat="44.79513" lon="1.60616">
        <ele>134</ele>
        <time>2019-06-13T11:32:57+02:00</time>
      </trkpt>
      <trkpt lat="44.79524" lon="1.60588">
        <ele>134</ele>
        <time>2019-06-13T11:33:18+02:00</time>
      </trkpt>
      <trkpt lat="44.79536" lon="1.6056">
        <ele>134</ele>
        <time>2019-06-13T11:33:36+02:00</time>
      </trkpt>
      <trkpt lat="44.79548" lon="1.60533">
        <ele>133</ele>
        <time>2019-06-13T11:33:54+02:00</time>
      </trkpt>
      <trkpt lat="44.79562" lon="1.60507">
        <ele>134</ele>
        <time>2019-06-13T11:34:14+02:00</time>
      </trkpt>
      <trkpt lat="44.79569" lon="1.60475">
        <ele>133</ele>
        <time>2019-06-13T11:34:32+02:00</time>
      </trkpt>
      <trkpt lat="44.79574" lon="1.60444">
        <ele>131</ele>
        <time>2019-06-13T11:34:52+02:00</time>
      </trkpt>
      <trkpt lat="44.79574" lon="1.60412">
        <ele>132</ele>
        <time>2019-06-13T11:35:31+02:00</time>
      </trkpt>
      <trkpt lat="44.79569" lon="1.60379">
        <ele>135</ele>
        <time>2019-06-13T11:35:52+02:00</time>
      </trkpt>
      <trkpt lat="44.79553" lon="1.60353">
        <ele>133</ele>
        <time>2019-06-13T11:36:13+02:00</time>
      </trkpt>
      <trkpt lat="44.79538" lon="1.60329">
        <ele>132</ele>
        <time>2019-06-13T11:36:33+02:00</time>
      </trkpt>
      <trkpt lat="44.79525" lon="1.60302">
        <ele>133</ele>
        <time>2019-06-13T11:36:53+02:00</time>
      </trkpt>
      <trkpt lat="44.79509" lon="1.60279">
        <ele>132</ele>
        <time>2019-06-13T11:37:10+02:00</time>
      </trkpt>
      <trkpt lat="44.79497" lon="1.60252">
        <ele>132</ele>
        <time>2019-06-13T11:37:30+02:00</time>
      </trkpt>
      <trkpt lat="44.79484" lon="1.60226">
        <ele>132</ele>
        <time>2019-06-13T11:37:51+02:00</time>
      </trkpt>
      <trkpt lat="44.79473" lon="1.60197">
        <ele>132</ele>
        <time>2019-06-13T11:38:12+02:00</time>
      </trkpt>
      <trkpt lat="44.79462" lon="1.60168">
        <ele>132</ele>
        <time>2019-06-13T11:38:34+02:00</time>
      </trkpt>
      <trkpt lat="44.7945" lon="1.60141">
        <ele>133</ele>
        <time>2019-06-13T11:38:51+02:00</time>
      </trkpt>
      <trkpt lat="44.79433" lon="1.6012">
        <ele>132</ele>
        <time>2019-06-13T11:39:11+02:00</time>
      </trkpt>
      <trkpt lat="44.7943" lon="1.60088">
        <ele>136</ele>
        <time>2019-06-13T11:39:29+02:00</time>
      </trkpt>
      <trkpt lat="44.79426" lon="1.60057">
        <ele>136</ele>
        <time>2019-06-13T11:39:51+02:00</time>
      </trkpt>
      <trkpt lat="44.79428" lon="1.60025">
        <ele>135</ele>
        <time>2019-06-13T11:40:09+02:00</time>
      </trkpt>
      <trkpt lat="44.79438" lon="1.59995">
        <ele>136</ele>
        <time>2019-06-13T11:40:28+02:00</time>
      </trkpt>
      <trkpt lat="44.79449" lon="1.59967">
        <ele>133</ele>
        <time>2019-06-13T11:40:44+02:00</time>
      </trkpt>
      <trkpt lat="44.79468" lon="1.59948">
        <ele>134</ele>
        <time>2019-06-13T11:41:02+02:00</time>
      </trkpt>
      <trkpt lat="44.79492" lon="1.59941">
        <ele>138</ele>
        <time>2019-06-13T11:41:24+02:00</time>
      </trkpt>
      <trkpt lat="44.79513" lon="1.59927">
        <ele>139</ele>
        <time>2019-06-13T11:41:47+02:00</time>
      </trkpt>
      <trkpt lat="44.79532" lon="1.59909">
        <ele>136</ele>
        <time>2019-06-13T11:42:06+02:00</time>
      </trkpt>
      <trkpt lat="44.79553" lon="1.59893">
        <ele>136</ele>
        <time>2019-06-13T11:42:22+02:00</time>
      </trkpt>
      <trkpt lat="44.79573" lon="1.59879">
        <ele>138</ele>
        <time>2019-06-13T11:42:40+02:00</time>
      </trkpt>
      <trkpt lat="44.79591" lon="1.59857">
        <ele>137</ele>
        <time>2019-06-13T11:43:02+02:00</time>
      </trkpt>
      <trkpt lat="44.7961" lon="1.59838">
        <ele>137</ele>
        <time>2019-06-13T11:43:22+02:00</time>
      </trkpt>
      <trkpt lat="44.79618" lon="1.59807">
        <ele>136</ele>
        <time>2019-06-13T11:43:45+02:00</time>
      </trkpt>
      <trkpt lat="44.79625" lon="1.59777">
        <ele>131</ele>
        <time>2019-06-13T11:44:28+02:00</time>
      </trkpt>
      <trkpt lat="44.79619" lon="1.59745">
        <ele>140</ele>
        <time>2019-06-13T11:44:44+02:00</time>
      </trkpt>
      <trkpt lat="44.79615" lon="1.59713">
        <ele>141</ele>
        <time>2019-06-13T11:45:06+02:00</time>
      </trkpt>
      <trkpt lat="44.79603" lon="1.59687">
        <ele>136</ele>
        <time>2019-06-13T11:45:34+02:00</time>
      </trkpt>
      <trkpt lat="44.79585" lon="1.59668">
        <ele>141</ele>
        <time>2019-06-13T11:45:53+02:00</time>
      </trkpt>
      <trkpt lat="44.79565" lon="1.59652">
        <ele>142</ele>
        <time>2019-06-13T11:46:13+02:00</time>
      </trkpt>
      <trkpt lat="44.79549" lon="1.5963">
        <ele>136</ele>
        <time>2019-06-13T11:46:32+02:00</time>
      </trkpt>
      <trkpt lat="44.7953" lon="1.59613">
        <ele>139</ele>
        <time>2019-06-13T11:46:51+02:00</time>
      </trkpt>
      <trkpt lat="44.79507" lon="1.59605">
        <ele>136</ele>
        <time>2019-06-13T11:47:12+02:00</time>
      </trkpt>
      <trkpt lat="44.79487" lon="1.59589">
        <ele>136</ele>
        <time>2019-06-13T11:47:33+02:00</time>
      </trkpt>
      <trkpt lat="44.79464" lon="1.59581">
        <ele>133</ele>
        <time>2019-06-13T11:47:55+02:00</time>
      </trkpt>
      <trkpt lat="44.79446" lon="1.596">
        <ele>127</ele>
        <time>2019-06-13T11:48:15+02:00</time>
      </trkpt>
      <trkpt lat="44.79428" lon="1.5962">
        <ele>130</ele>
        <time>2019-06-13T11:48:35+02:00</time>
      </trkpt>
      <trkpt lat="44.79405" lon="1.59615">
        <ele>132</ele>
        <time>2019-06-13T11:48:57+02:00</time>
      </trkpt>
      <trkpt lat="44.79386" lon="1.59599">
        <ele>131</ele>
        <time>2019-06-13T11:49:17+02:00</time>
      </trkpt>
      <trkpt lat="44.79366" lon="1.59582">
        <ele>132</ele>
        <time>2019-06-13T11:49:38+02:00</time>
      </trkpt>
      <trkpt lat="44.79349" lon="1.5956">
        <ele>132</ele>
        <time>2019-06-13T11:50:02+02:00</time>
      </trkpt>
      <trkpt lat="44.79328" lon="1.59544">
        <ele>137</ele>
        <time>2019-06-13T11:50:26+02:00</time>
      </trkpt>
      <trkpt lat="44.79312" lon="1.59522">
        <ele>141</ele>
        <time>2019-06-13T11:50:50+02:00</time>
      </trkpt>
      <trkpt lat="44.79297" lon="1.59498">
        <ele>145</ele>
        <time>2019-06-13T11:51:13+02:00</time>
      </trkpt>
      <trkpt lat="44.79283" lon="1.59471">
        <ele>148</ele>
        <time>2019-06-13T11:51:41+02:00</time>
      </trkpt>
      <trkpt lat="44.79273" lon="1.59442">
        <ele>149</ele>
        <time>2019-06-13T11:52:06+02:00</time>
      </trkpt>
      <trkpt lat="44.79263" lon="1.59412">
        <ele>152</ele>
        <time>2019-06-13T11:52:29+02:00</time>
      </trkpt>
      <trkpt lat="44.7926" lon="1.59381">
        <ele>151</ele>
        <time>2019-06-13T11:52:53+02:00</time>
      </trkpt>
      <trkpt lat="44.79264" lon="1.59349">
        <ele>149</ele>
        <time>2019-06-13T11:53:14+02:00</time>
      </trkpt>
      <trkpt lat="44.79264" lon="1.59316">
        <ele>150</ele>
        <time>2019-06-13T11:53:37+02:00</time>
      </trkpt>
      <trkpt lat="44.79263" lon="1.59283">
        <ele>153</ele>
        <time>2019-06-13T11:54:02+02:00</time>
      </trkpt>
      <trkpt lat="44.79266" lon="1.59252">
        <ele>154</ele>
        <time>2019-06-13T11:54:23+02:00</time>
      </trkpt>
      <trkpt lat="44.79272" lon="1.5922">
        <ele>156</ele>
        <time>2019-06-13T11:54:48+02:00</time>
      </trkpt>
      <trkpt lat="44.79277" lon="1.59189">
        <ele>159</ele>
        <time>2019-06-13T11:55:14+02:00</time>
      </trkpt>
      <trkpt lat="44.79283" lon="1.59158">
        <ele>161</ele>
        <time>2019-06-13T11:55:35+02:00</time>
      </trkpt>
      <trkpt lat="44.79281" lon="1.59126">
        <ele>164</ele>
        <time>2019-06-13T11:58:24+02:00</time>
      </trkpt>
      <trkpt lat="44.79275" lon="1.59094">
        <ele>162</ele>
        <time>2019-06-13T11:58:44+02:00</time>
      </trkpt>
      <trkpt lat="44.79275" lon="1.59062">
        <ele>160</ele>
        <time>2019-06-13T11:59:07+02:00</time>
      </trkpt>
      <trkpt lat="44.79283" lon="1.59032">
        <ele>161</ele>
        <time>2019-06-13T12:02:28+02:00</time>
      </trkpt>
      <trkpt lat="44.79281" lon="1.59">
        <ele>160</ele>
        <time>2019-06-13T12:02:50+02:00</time>
      </trkpt>
      <trkpt lat="44.79276" lon="1.58968">
        <ele>157</ele>
        <time>2019-06-13T12:03:08+02:00</time>
      </trkpt>
      <trkpt lat="44.79274" lon="1.58936">
        <ele>155</ele>
        <time>2019-06-13T12:03:27+02:00</time>
      </trkpt>
      <trkpt lat="44.79275" lon="1.58904">
        <ele>155</ele>
        <time>2019-06-13T12:03:47+02:00</time>
      </trkpt>
      <trkpt lat="44.79273" lon="1.58871">
        <ele>153</ele>
        <time>2019-06-13T12:04:07+02:00</time>
      </trkpt>
      <trkpt lat="44.79271" lon="1.58838">
        <ele>151</ele>
        <time>2019-06-13T12:04:26+02:00</time>
      </trkpt>
      <trkpt lat="44.79267" lon="1.58806">
        <ele>149</ele>
        <time>2019-06-13T12:04:46+02:00</time>
      </trkpt>
      <trkpt lat="44.79263" lon="1.58774">
        <ele>147</ele>
        <time>2019-06-13T12:05:05+02:00</time>
      </trkpt>
      <trkpt lat="44.79263" lon="1.58743">
        <ele>148</ele>
        <time>2019-06-13T12:05:24+02:00</time>
      </trkpt>
      <trkpt lat="44.79259" lon="1.5871">
        <ele>147</ele>
        <time>2019-06-13T12:05:46+02:00</time>
      </trkpt>
      <trkpt lat="44.79251" lon="1.5868">
        <ele>144</ele>
        <time>2019-06-13T12:06:03+02:00</time>
      </trkpt>
      <trkpt lat="44.79245" lon="1.58648">
        <ele>143</ele>
        <time>2019-06-13T12:06:23+02:00</time>
      </trkpt>
      <trkpt lat="44.79238" lon="1.58617">
        <ele>141</ele>
        <time>2019-06-13T12:06:41+02:00</time>
      </trkpt>
      <trkpt lat="44.79228" lon="1.58586">
        <ele>141</ele>
        <time>2019-06-13T12:07:03+02:00</time>
      </trkpt>
      <trkpt lat="44.79217" lon="1.58558">
        <ele>139</ele>
        <time>2019-06-13T12:08:54+02:00</time>
      </trkpt>
      <trkpt lat="44.79199" lon="1.58535">
        <ele>137</ele>
        <time>2019-06-13T12:09:14+02:00</time>
      </trkpt>
      <trkpt lat="44.79192" lon="1.58504">
        <ele>137</ele>
        <time>2019-06-13T12:09:33+02:00</time>
      </trkpt>
      <trkpt lat="44.79184" lon="1.58474">
        <ele>137</ele>
        <time>2019-06-13T12:09:53+02:00</time>
      </trkpt>
      <trkpt lat="44.79174" lon="1.58444">
        <ele>136</ele>
        <time>2019-06-13T12:10:11+02:00</time>
      </trkpt>
      <trkpt lat="44.79171" lon="1.58412">
        <ele>135</ele>
        <time>2019-06-13T12:10:29+02:00</time>
      </trkpt>
      <trkpt lat="44.79165" lon="1.58382">
        <ele>133</ele>
        <time>2019-06-13T12:10:48+02:00</time>
      </trkpt>
      <trkpt lat="44.79164" lon="1.58349">
        <ele>130</ele>
        <time>2019-06-13T12:11:09+02:00</time>
      </trkpt>
      <trkpt lat="44.79166" lon="1.58317">
        <ele>126</ele>
        <time>2019-06-13T12:11:27+02:00</time>
      </trkpt>
      <trkpt lat="44.79175" lon="1.58287">
        <ele>126</ele>
        <time>2019-06-13T12:11:48+02:00</time>
      </trkpt>
      <trkpt lat="44.79185" lon="1.58259">
        <ele>128</ele>
        <time>2019-06-13T12:12:07+02:00</time>
      </trkpt>
      <trkpt lat="44.79171" lon="1.58233">
        <ele>126</ele>
        <time>2019-06-13T12:12:38+02:00</time>
      </trkpt>
      <trkpt lat="44.7916" lon="1.58204">
        <ele>126</ele>
        <time>2019-06-13T12:12:58+02:00</time>
      </trkpt>
      <trkpt lat="44.79153" lon="1.58172">
        <ele>128</ele>
        <time>2019-06-13T12:13:16+02:00</time>
      </trkpt>
      <trkpt lat="44.79144" lon="1.58141">
        <ele>131</ele>
        <time>2019-06-13T12:13:37+02:00</time>
      </trkpt>
      <trkpt lat="44.7914" lon="1.58108">
        <ele>134</ele>
        <time>2019-06-13T12:13:58+02:00</time>
      </trkpt>
      <trkpt lat="44.79139" lon="1.58076">
        <ele>134</ele>
        <time>2019-06-13T12:14:16+02:00</time>
      </trkpt>
      <trkpt lat="44.79137" lon="1.58044">
        <ele>135</ele>
        <time>2019-06-13T12:14:35+02:00</time>
      </trkpt>
      <trkpt lat="44.79139" lon="1.58011">
        <ele>135</ele>
        <time>2019-06-13T12:14:55+02:00</time>
      </trkpt>
      <trkpt lat="44.79134" lon="1.57976">
        <ele>133</ele>
        <time>2019-06-13T12:15:15+02:00</time>
      </trkpt>
      <trkpt lat="44.79131" lon="1.57945">
        <ele>133</ele>
        <time>2019-06-13T12:15:35+02:00</time>
      </trkpt>
      <trkpt lat="44.79128" lon="1.57911">
        <ele>133</ele>
        <time>2019-06-13T12:15:55+02:00</time>
      </trkpt>
      <trkpt lat="44.7913" lon="1.57879">
        <ele>135</ele>
        <time>2019-06-13T12:16:17+02:00</time>
      </trkpt>
      <trkpt lat="44.79132" lon="1.57846">
        <ele>136</ele>
        <time>2019-06-13T12:16:37+02:00</time>
      </trkpt>
      <trkpt lat="44.79142" lon="1.57818">
        <ele>137</ele>
        <time>2019-06-13T12:16:57+02:00</time>
      </trkpt>
      <trkpt lat="44.7916" lon="1.57796">
        <ele>140</ele>
        <time>2019-06-13T12:18:36+02:00</time>
      </trkpt>
      <trkpt lat="44.79177" lon="1.57775">
        <ele>142</ele>
        <time>2019-06-13T12:18:59+02:00</time>
      </trkpt>
      <trkpt lat="44.79195" lon="1.57756">
        <ele>145</ele>
        <time>2019-06-13T12:19:19+02:00</time>
      </trkpt>
      <trkpt lat="44.79211" lon="1.57734">
        <ele>147</ele>
        <time>2019-06-13T12:19:43+02:00</time>
      </trkpt>
      <trkpt lat="44.79228" lon="1.57712">
        <ele>150</ele>
        <time>2019-06-13T12:20:07+02:00</time>
      </trkpt>
      <trkpt lat="44.79245" lon="1.5769">
        <ele>153</ele>
        <time>2019-06-13T12:20:32+02:00</time>
      </trkpt>
      <trkpt lat="44.79262" lon="1.57669">
        <ele>157</ele>
        <time>2019-06-13T12:20:54+02:00</time>
      </trkpt>
      <trkpt lat="44.79277" lon="1.57644">
        <ele>158</ele>
        <time>2019-06-13T12:21:17+02:00</time>
      </trkpt>
      <trkpt lat="44.79293" lon="1.5762">
        <ele>160</ele>
        <time>2019-06-13T12:21:42+02:00</time>
      </trkpt>
      <trkpt lat="44.79308" lon="1.57596">
        <ele>163</ele>
        <time>2019-06-13T12:22:04+02:00</time>
      </trkpt>
      <trkpt lat="44.79324" lon="1.57572">
        <ele>165</ele>
        <time>2019-06-13T12:22:27+02:00</time>
      </trkpt>
      <trkpt lat="44.7934" lon="1.57548">
        <ele>167</ele>
        <time>2019-06-13T12:22:49+02:00</time>
      </trkpt>
      <trkpt lat="44.79356" lon="1.57524">
        <ele>168</ele>
        <time>2019-06-13T12:23:13+02:00</time>
      </trkpt>
      <trkpt lat="44.79373" lon="1.57502">
        <ele>170</ele>
        <time>2019-06-13T12:23:37+02:00</time>
      </trkpt>
      <trkpt lat="44.79388" lon="1.57477">
        <ele>171</ele>
        <time>2019-06-13T12:24:00+02:00</time>
      </trkpt>
      <trkpt lat="44.794" lon="1.57451">
        <ele>171</ele>
        <time>2019-06-13T12:24:20+02:00</time>
      </trkpt>
      <trkpt lat="44.79414" lon="1.57425">
        <ele>171</ele>
        <time>2019-06-13T12:24:39+02:00</time>
      </trkpt>
      <trkpt lat="44.7943" lon="1.57402">
        <ele>173</ele>
        <time>2019-06-13T12:25:01+02:00</time>
      </trkpt>
      <trkpt lat="44.79448" lon="1.57382">
        <ele>175</ele>
        <time>2019-06-13T12:25:20+02:00</time>
      </trkpt>
      <trkpt lat="44.79469" lon="1.57365">
        <ele>177</ele>
        <time>2019-06-13T12:25:42+02:00</time>
      </trkpt>
      <trkpt lat="44.79491" lon="1.57353">
        <ele>180</ele>
        <time>2019-06-13T12:26:05+02:00</time>
      </trkpt>
      <trkpt lat="44.79513" lon="1.57344">
        <ele>183</ele>
        <time>2019-06-13T12:31:18+02:00</time>
      </trkpt>
      <trkpt lat="44.79532" lon="1.57326">
        <ele>183</ele>
        <time>2019-06-13T12:31:46+02:00</time>
      </trkpt>
      <trkpt lat="44.79553" lon="1.57314">
        <ele>183</ele>
        <time>2019-06-13T12:32:07+02:00</time>
      </trkpt>
      <trkpt lat="44.79576" lon="1.57307">
        <ele>184</ele>
        <time>2019-06-13T12:32:29+02:00</time>
      </trkpt>
      <trkpt lat="44.79598" lon="1.57301">
        <ele>185</ele>
        <time>2019-06-13T12:32:50+02:00</time>
      </trkpt>
      <trkpt lat="44.79619" lon="1.57287">
        <ele>183</ele>
        <time>2019-06-13T12:33:11+02:00</time>
      </trkpt>
      <trkpt lat="44.79637" lon="1.57267">
        <ele>183</ele>
        <time>2019-06-13T12:33:31+02:00</time>
      </trkpt>
      <trkpt lat="44.79655" lon="1.57247">
        <ele>182</ele>
        <time>2019-06-13T12:33:51+02:00</time>
      </trkpt>
      <trkpt lat="44.79668" lon="1.5722">
        <ele>181</ele>
        <time>2019-06-13T12:34:10+02:00</time>
      </trkpt>
      <trkpt lat="44.79679" lon="1.57191">
        <ele>181</ele>
        <time>2019-06-13T12:34:30+02:00</time>
      </trkpt>
      <trkpt lat="44.79691" lon="1.57164">
        <ele>181</ele>
        <time>2019-06-13T12:34:51+02:00</time>
      </trkpt>
      <trkpt lat="44.79704" lon="1.57136">
        <ele>181</ele>
        <time>2019-06-13T12:35:09+02:00</time>
      </trkpt>
      <trkpt lat="44.79714" lon="1.57106">
        <ele>181</ele>
        <time>2019-06-13T12:35:32+02:00</time>
      </trkpt>
      <trkpt lat="44.79733" lon="1.57123">
        <ele>181</ele>
        <time>2019-06-13T12:36:04+02:00</time>
      </trkpt>
      <trkpt lat="44.7974" lon="1.57153">
        <ele>178</ele>
        <time>2019-06-13T12:36:22+02:00</time>
      </trkpt>
      <trkpt lat="44.79741" lon="1.57187">
        <ele>174</ele>
        <time>2019-06-13T12:36:48+02:00</time>
      </trkpt>
      <trkpt lat="44.79744" lon="1.57219">
        <ele>169</ele>
        <time>2019-06-13T12:37:11+02:00</time>
      </trkpt>
      <trkpt lat="44.79742" lon="1.57252">
        <ele>164</ele>
        <time>2019-06-13T12:37:35+02:00</time>
      </trkpt>
      <trkpt lat="44.79742" lon="1.57285">
        <ele>159</ele>
        <time>2019-06-13T12:37:54+02:00</time>
      </trkpt>
      <trkpt lat="44.79734" lon="1.57315">
        <ele>156</ele>
        <time>2019-06-13T12:38:18+02:00</time>
      </trkpt>
      <trkpt lat="44.79729" lon="1.57347">
        <ele>153</ele>
        <time>2019-06-13T12:38:41+02:00</time>
      </trkpt>
      <trkpt lat="44.79727" lon="1.57379">
        <ele>150</ele>
        <time>2019-06-13T12:39:03+02:00</time>
      </trkpt>
      <trkpt lat="44.79729" lon="1.57411">
        <ele>148</ele>
        <time>2019-06-13T12:39:25+02:00</time>
      </trkpt>
      <trkpt lat="44.79729" lon="1.57443">
        <ele>146</ele>
        <time>2019-06-13T12:39:47+02:00</time>
      </trkpt>
      <trkpt lat="44.7975" lon="1.57455">
        <ele>139</ele>
        <time>2019-06-13T12:40:15+02:00</time>
      </trkpt>
      <trkpt lat="44.79773" lon="1.57462">
        <ele>134</ele>
        <time>2019-06-13T12:40:36+02:00</time>
      </trkpt>
      <trkpt lat="44.79794" lon="1.57472">
        <ele>131</ele>
        <time>2019-06-13T12:40:56+02:00</time>
      </trkpt>
      <trkpt lat="44.79817" lon="1.57481">
        <ele>130</ele>
        <time>2019-06-13T12:41:17+02:00</time>
      </trkpt>
      <trkpt lat="44.7984" lon="1.57488">
        <ele>131</ele>
        <time>2019-06-13T12:41:38+02:00</time>
      </trkpt>
      <trkpt lat="44.79862" lon="1.57497">
        <ele>132</ele>
        <time>2019-06-13T12:41:59+02:00</time>
      </trkpt>
      <trkpt lat="44.79885" lon="1.57508">
        <ele>131</ele>
        <time>2019-06-13T12:42:17+02:00</time>
      </trkpt>
      <trkpt lat="44.79907" lon="1.57519">
        <ele>131</ele>
        <time>2019-06-13T12:42:38+02:00</time>
      </trkpt>
      <trkpt lat="44.79929" lon="1.57527">
        <ele>130</ele>
        <time>2019-06-13T12:42:59+02:00</time>
      </trkpt>
      <trkpt lat="44.79952" lon="1.57521">
        <ele>129</ele>
        <time>2019-06-13T12:43:35+02:00</time>
      </trkpt>
      <trkpt lat="44.79974" lon="1.57516">
        <ele>129</ele>
        <time>2019-06-13T12:43:55+02:00</time>
      </trkpt>
      <trkpt lat="44.79991" lon="1.57495">
        <ele>127</ele>
        <time>2019-06-13T12:46:43+02:00</time>
      </trkpt>
      <trkpt lat="44.80007" lon="1.57471">
        <ele>125</ele>
        <time>2019-06-13T12:47:04+02:00</time>
      </trkpt>
      <trkpt lat="44.80029" lon="1.57461">
        <ele>122</ele>
        <time>2019-06-13T12:47:30+02:00</time>
      </trkpt>
      <trkpt lat="44.80036" lon="1.57492">
        <ele>121</ele>
        <time>2019-06-13T12:47:52+02:00</time>
      </trkpt>
      <trkpt lat="44.8004" lon="1.57523">
        <ele>119</ele>
        <time>2019-06-13T12:48:14+02:00</time>
      </trkpt>
      <trkpt lat="44.8004" lon="1.57555">
        <ele>117</ele>
        <time>2019-06-13T12:48:35+02:00</time>
      </trkpt>
      <trkpt lat="44.80035" lon="1.57586">
        <ele>116</ele>
        <time>2019-06-13T12:48:57+02:00</time>
      </trkpt>
      <trkpt lat="44.80029" lon="1.57617">
        <ele>115</ele>
        <time>2019-06-13T12:49:20+02:00</time>
      </trkpt>
      <trkpt lat="44.80009" lon="1.57634">
        <ele>115</ele>
        <time>2019-06-13T12:50:04+02:00</time>
      </trkpt>
      <trkpt lat="44.79997" lon="1.5766">
        <ele>115</ele>
        <time>2019-06-13T12:50:26+02:00</time>
      </trkpt>
      <trkpt lat="44.79988" lon="1.5769">
        <ele>115</ele>
        <time>2019-06-13T12:50:45+02:00</time>
      </trkpt>
      <trkpt lat="44.79997" lon="1.57719">
        <ele>116</ele>
        <time>2019-06-13T12:52:16+02:00</time>
      </trkpt>
      <trkpt lat="44.80015" lon="1.577">
        <ele>119</ele>
        <time>2019-06-13T12:54:26+02:00</time>
      </trkpt>
      <trkpt lat="44.80033" lon="1.57678">
        <ele>120</ele>
        <time>2019-06-13T12:54:50+02:00</time>
      </trkpt>
      <trkpt lat="44.80052" lon="1.57661">
        <ele>122</ele>
        <time>2019-06-13T12:55:13+02:00</time>
      </trkpt>
      <trkpt lat="44.80074" lon="1.57651">
        <ele>128</ele>
        <time>2019-06-13T12:55:38+02:00</time>
      </trkpt>
      <trkpt lat="44.80077" lon="1.57684">
        <ele>135</ele>
        <time>2019-06-13T12:56:25+02:00</time>
      </trkpt>
      <trkpt lat="44.80072" lon="1.57717">
        <ele>138</ele>
        <time>2019-06-13T12:56:47+02:00</time>
      </trkpt>
      <trkpt lat="44.80069" lon="1.57748">
        <ele>139</ele>
        <time>2019-06-13T12:57:08+02:00</time>
      </trkpt>
      <trkpt lat="44.80064" lon="1.57781">
        <ele>139</ele>
        <time>2019-06-13T12:57:27+02:00</time>
      </trkpt>
      <trkpt lat="44.80065" lon="1.57813">
        <ele>141</ele>
        <time>2019-06-13T12:57:49+02:00</time>
      </trkpt>
      <trkpt lat="44.80063" lon="1.57845">
        <ele>141</ele>
        <time>2019-06-13T12:58:07+02:00</time>
      </trkpt>
      <trkpt lat="44.8006" lon="1.57877">
        <ele>141</ele>
        <time>2019-06-13T12:58:26+02:00</time>
      </trkpt>
      <trkpt lat="44.80068" lon="1.57907">
        <ele>142</ele>
        <time>2019-06-13T12:58:53+02:00</time>
      </trkpt>
      <trkpt lat="44.80082" lon="1.57935">
        <ele>143</ele>
        <time>2019-06-13T12:59:15+02:00</time>
      </trkpt>
      <trkpt lat="44.801" lon="1.57955">
        <ele>146</ele>
        <time>2019-06-13T12:59:40+02:00</time>
      </trkpt>
      <trkpt lat="44.80114" lon="1.57983">
        <ele>149</ele>
        <time>2019-06-13T13:00:04+02:00</time>
      </trkpt>
      <trkpt lat="44.80094" lon="1.58">
        <ele>151</ele>
        <time>2019-06-13T13:00:30+02:00</time>
      </trkpt>
      <trkpt lat="44.80072" lon="1.5801">
        <ele>152</ele>
        <time>2019-06-13T13:00:54+02:00</time>
      </trkpt>
      <trkpt lat="44.80064" lon="1.58039">
        <ele>156</ele>
        <time>2019-06-13T13:01:17+02:00</time>
      </trkpt>
      <trkpt lat="44.80055" lon="1.58069">
        <ele>159</ele>
        <time>2019-06-13T13:01:41+02:00</time>
      </trkpt>
      <trkpt lat="44.80052" lon="1.58101">
        <ele>162</ele>
        <time>2019-06-13T13:02:05+02:00</time>
      </trkpt>
      <trkpt lat="44.80049" lon="1.58134">
        <ele>165</ele>
        <time>2019-06-13T13:02:28+02:00</time>
      </trkpt>
      <trkpt lat="44.80046" lon="1.58166">
        <ele>167</ele>
        <time>2019-06-13T13:02:51+02:00</time>
      </trkpt>
      <trkpt lat="44.80042" lon="1.58198">
        <ele>169</ele>
        <time>2019-06-13T13:03:16+02:00</time>
      </trkpt>
      <trkpt lat="44.80042" lon="1.58231">
        <ele>172</ele>
        <time>2019-06-13T13:03:41+02:00</time>
      </trkpt>
      <trkpt lat="44.80038" lon="1.58263">
        <ele>174</ele>
        <time>2019-06-13T13:04:04+02:00</time>
      </trkpt>
      <trkpt lat="44.8004" lon="1.58295">
        <ele>178</ele>
        <time>2019-06-13T13:04:42+02:00</time>
      </trkpt>
      <trkpt lat="44.8005" lon="1.58324">
        <ele>181</ele>
        <time>2019-06-13T13:05:07+02:00</time>
      </trkpt>
      <trkpt lat="44.80065" lon="1.58348">
        <ele>184</ele>
        <time>2019-06-13T13:05:30+02:00</time>
      </trkpt>
      <trkpt lat="44.80083" lon="1.58367">
        <ele>186</ele>
        <time>2019-06-13T13:05:50+02:00</time>
      </trkpt>
      <trkpt lat="44.80105" lon="1.58382">
        <ele>189</ele>
        <time>2019-06-13T13:06:14+02:00</time>
      </trkpt>
      <trkpt lat="44.80124" lon="1.584">
        <ele>190</ele>
        <time>2019-06-13T13:06:37+02:00</time>
      </trkpt>
      <trkpt lat="44.80145" lon="1.58413">
        <ele>191</ele>
        <time>2019-06-13T13:06:58+02:00</time>
      </trkpt>
      <trkpt lat="44.80155" lon="1.58443">
        <ele>187</ele>
        <time>2019-06-13T13:08:32+02:00</time>
      </trkpt>
      <trkpt lat="44.80175" lon="1.58458">
        <ele>191</ele>
        <time>2019-06-13T13:08:52+02:00</time>
      </trkpt>
      <trkpt lat="44.80194" lon="1.58477">
        <ele>185</ele>
        <time>2019-06-13T13:09:12+02:00</time>
      </trkpt>
      <trkpt lat="44.80214" lon="1.58493">
        <ele>183</ele>
        <time>2019-06-13T13:09:35+02:00</time>
      </trkpt>
      <trkpt lat="44.80238" lon="1.585">
        <ele>183</ele>
        <time>2019-06-13T13:10:07+02:00</time>
      </trkpt>
      <trkpt lat="44.80259" lon="1.58514">
        <ele>181</ele>
        <time>2019-06-13T13:10:29+02:00</time>
      </trkpt>
      <trkpt lat="44.80281" lon="1.58525">
        <ele>180</ele>
        <time>2019-06-13T13:10:49+02:00</time>
      </trkpt>
      <trkpt lat="44.80303" lon="1.58533">
        <ele>178</ele>
        <time>2019-06-13T13:11:13+02:00</time>
      </trkpt>
      <trkpt lat="44.80325" lon="1.58546">
        <ele>176</ele>
        <time>2019-06-13T13:11:35+02:00</time>
      </trkpt>
      <trkpt lat="44.80347" lon="1.58554">
        <ele>175</ele>
        <time>2019-06-13T13:11:56+02:00</time>
      </trkpt>
      <trkpt lat="44.80365" lon="1.58575">
        <ele>171</ele>
        <time>2019-06-13T13:12:13+02:00</time>
      </trkpt>
      <trkpt lat="44.80377" lon="1.58604">
        <ele>164</ele>
        <time>2019-06-13T13:12:44+02:00</time>
      </trkpt>
      <trkpt lat="44.80393" lon="1.58626">
        <ele>163</ele>
        <time>2019-06-13T13:13:03+02:00</time>
      </trkpt>
      <trkpt lat="44.8041" lon="1.58647">
        <ele>161</ele>
        <time>2019-06-13T13:13:21+02:00</time>
      </trkpt>
      <trkpt lat="44.80428" lon="1.58666">
        <ele>162</ele>
        <time>2019-06-13T13:13:41+02:00</time>
      </trkpt>
      <trkpt lat="44.80447" lon="1.58685">
        <ele>162</ele>
        <time>2019-06-13T13:14:01+02:00</time>
      </trkpt>
      <trkpt lat="44.80461" lon="1.5871">
        <ele>160</ele>
        <time>2019-06-13T13:14:20+02:00</time>
      </trkpt>
      <trkpt lat="44.80476" lon="1.58736">
        <ele>157</ele>
        <time>2019-06-13T13:14:45+02:00</time>
      </trkpt>
      <trkpt lat="44.80494" lon="1.58757">
        <ele>156</ele>
        <time>2019-06-13T13:15:06+02:00</time>
      </trkpt>
      <trkpt lat="44.80513" lon="1.58774">
        <ele>155</ele>
        <time>2019-06-13T13:15:26+02:00</time>
      </trkpt>
      <trkpt lat="44.80533" lon="1.58789">
        <ele>155</ele>
        <time>2019-06-13T13:15:49+02:00</time>
      </trkpt>
      <trkpt lat="44.80554" lon="1.58801">
        <ele>154</ele>
        <time>2019-06-13T13:16:08+02:00</time>
      </trkpt>
      <trkpt lat="44.80577" lon="1.58808">
        <ele>155</ele>
        <time>2019-06-13T13:16:30+02:00</time>
      </trkpt>
      <trkpt lat="44.80591" lon="1.58834">
        <ele>153</ele>
        <time>2019-06-13T13:16:54+02:00</time>
      </trkpt>
      <trkpt lat="44.80594" lon="1.58866">
        <ele>159</ele>
        <time>2019-06-13T13:17:21+02:00</time>
      </trkpt>
      <trkpt lat="44.80617" lon="1.58869">
        <ele>161</ele>
        <time>2019-06-13T14:19:50+02:00</time>
      </trkpt>
      <trkpt lat="44.8064" lon="1.58866">
        <ele>161</ele>
        <time>2019-06-13T14:20:21+02:00</time>
      </trkpt>
      <trkpt lat="44.80657" lon="1.58887">
        <ele>166</ele>
        <time>2019-06-13T14:22:06+02:00</time>
      </trkpt>
      <trkpt lat="44.80679" lon="1.58896">
        <ele>168</ele>
        <time>2019-06-13T14:22:36+02:00</time>
      </trkpt>
      <trkpt lat="44.807" lon="1.58908">
        <ele>171</ele>
        <time>2019-06-13T14:23:00+02:00</time>
      </trkpt>
      <trkpt lat="44.8072" lon="1.58923">
        <ele>173</ele>
        <time>2019-06-13T14:23:26+02:00</time>
      </trkpt>
      <trkpt lat="44.80733" lon="1.5895">
        <ele>178</ele>
        <time>2019-06-13T14:24:56+02:00</time>
      </trkpt>
      <trkpt lat="44.80746" lon="1.58976">
        <ele>181</ele>
        <time>2019-06-13T14:25:19+02:00</time>
      </trkpt>
      <trkpt lat="44.80755" lon="1.59005">
        <ele>183</ele>
        <time>2019-06-13T14:25:45+02:00</time>
      </trkpt>
      <trkpt lat="44.80756" lon="1.59037">
        <ele>185</ele>
        <time>2019-06-13T14:26:13+02:00</time>
      </trkpt>
      <trkpt lat="44.80748" lon="1.59067">
        <ele>190</ele>
        <time>2019-06-13T14:26:42+02:00</time>
      </trkpt>
      <trkpt lat="44.80726" lon="1.59056">
        <ele>197</ele>
        <time>2019-06-13T14:27:14+02:00</time>
      </trkpt>
      <trkpt lat="44.80706" lon="1.5904">
        <ele>201</ele>
        <time>2019-06-13T14:27:46+02:00</time>
      </trkpt>
      <trkpt lat="44.80684" lon="1.59029">
        <ele>205</ele>
        <time>2019-06-13T14:28:14+02:00</time>
      </trkpt>
      <trkpt lat="44.80662" lon="1.59031">
        <ele>211</ele>
        <time>2019-06-13T14:28:49+02:00</time>
      </trkpt>
      <trkpt lat="44.80641" lon="1.59046">
        <ele>219</ele>
        <time>2019-06-13T14:29:24+02:00</time>
      </trkpt>
      <trkpt lat="44.80628" lon="1.59071">
        <ele>226</ele>
        <time>2019-06-13T14:29:54+02:00</time>
      </trkpt>
      <trkpt lat="44.80613" lon="1.59095">
        <ele>233</ele>
        <time>2019-06-13T14:30:23+02:00</time>
      </trkpt>
      <trkpt lat="44.80604" lon="1.59125">
        <ele>238</ele>
        <time>2019-06-13T14:33:25+02:00</time>
      </trkpt>
      <trkpt lat="44.80606" lon="1.59158">
        <ele>241</ele>
        <time>2019-06-13T14:33:49+02:00</time>
      </trkpt>
      <trkpt lat="44.806" lon="1.59189">
        <ele>244</ele>
        <time>2019-06-13T14:34:15+02:00</time>
      </trkpt>
      <trkpt lat="44.80594" lon="1.5922">
        <ele>247</ele>
        <time>2019-06-13T14:34:37+02:00</time>
      </trkpt>
      <trkpt lat="44.8059" lon="1.59253">
        <ele>248</ele>
        <time>2019-06-13T14:35:00+02:00</time>
      </trkpt>
      <trkpt lat="44.80587" lon="1.59285">
        <ele>250</ele>
        <time>2019-06-13T14:35:22+02:00</time>
      </trkpt>
      <trkpt lat="44.8058" lon="1.59315">
        <ele>252</ele>
        <time>2019-06-13T14:35:43+02:00</time>
      </trkpt>
      <trkpt lat="44.80572" lon="1.59346">
        <ele>253</ele>
        <time>2019-06-13T14:36:33+02:00</time>
      </trkpt>
      <trkpt lat="44.80564" lon="1.59376">
        <ele>255</ele>
        <time>2019-06-13T14:36:57+02:00</time>
      </trkpt>
      <trkpt lat="44.80549" lon="1.594">
        <ele>256</ele>
        <time>2019-06-13T14:37:17+02:00</time>
      </trkpt>
      <trkpt lat="44.80534" lon="1.59426">
        <ele>257</ele>
        <time>2019-06-13T14:37:37+02:00</time>
      </trkpt>
      <trkpt lat="44.8052" lon="1.59451">
        <ele>260</ele>
        <time>2019-06-13T14:38:00+02:00</time>
      </trkpt>
      <trkpt lat="44.80503" lon="1.59473">
        <ele>261</ele>
        <time>2019-06-13T14:38:22+02:00</time>
      </trkpt>
      <trkpt lat="44.80487" lon="1.59496">
        <ele>264</ele>
        <time>2019-06-13T14:38:43+02:00</time>
      </trkpt>
      <trkpt lat="44.80468" lon="1.59514">
        <ele>266</ele>
        <time>2019-06-13T14:39:05+02:00</time>
      </trkpt>
      <trkpt lat="44.80448" lon="1.59529">
        <ele>266</ele>
        <time>2019-06-13T14:39:26+02:00</time>
      </trkpt>
      <trkpt lat="44.8044" lon="1.59559">
        <ele>268</ele>
        <time>2019-06-13T14:41:46+02:00</time>
      </trkpt>
      <trkpt lat="44.80435" lon="1.59591">
        <ele>268</ele>
        <time>2019-06-13T14:42:05+02:00</time>
      </trkpt>
      <trkpt lat="44.80437" lon="1.59623">
        <ele>269</ele>
        <time>2019-06-13T14:42:24+02:00</time>
      </trkpt>
      <trkpt lat="44.80435" lon="1.59655">
        <ele>269</ele>
        <time>2019-06-13T14:42:47+02:00</time>
      </trkpt>
      <trkpt lat="44.80432" lon="1.59687">
        <ele>268</ele>
        <time>2019-06-13T14:43:06+02:00</time>
      </trkpt>
      <trkpt lat="44.80427" lon="1.5972">
        <ele>268</ele>
        <time>2019-06-13T14:43:29+02:00</time>
      </trkpt>
      <trkpt lat="44.80425" lon="1.59751">
        <ele>268</ele>
        <time>2019-06-13T14:43:49+02:00</time>
      </trkpt>
      <trkpt lat="44.80418" lon="1.59783">
        <ele>268</ele>
        <time>2019-06-13T14:44:33+02:00</time>
      </trkpt>
      <trkpt lat="44.80406" lon="1.5981">
        <ele>267</ele>
        <time>2019-06-13T14:44:53+02:00</time>
      </trkpt>
      <trkpt lat="44.80424" lon="1.59831">
        <ele>268</ele>
        <time>2019-06-13T14:45:48+02:00</time>
      </trkpt>
      <trkpt lat="44.80446" lon="1.59833">
        <ele>270</ele>
        <time>2019-06-13T14:46:10+02:00</time>
      </trkpt>
      <trkpt lat="44.80469" lon="1.59836">
        <ele>271</ele>
        <time>2019-06-13T14:46:31+02:00</time>
      </trkpt>
      <trkpt lat="44.80491" lon="1.59843">
        <ele>272</ele>
        <time>2019-06-13T14:46:51+02:00</time>
      </trkpt>
      <trkpt lat="44.80515" lon="1.59844">
        <ele>272</ele>
        <time>2019-06-13T14:47:10+02:00</time>
      </trkpt>
      <trkpt lat="44.80536" lon="1.59856">
        <ele>273</ele>
        <time>2019-06-13T14:47:30+02:00</time>
      </trkpt>
      <trkpt lat="44.80538" lon="1.59889">
        <ele>273</ele>
        <time>2019-06-13T14:47:51+02:00</time>
      </trkpt>
      <trkpt lat="44.80538" lon="1.59921">
        <ele>275</ele>
        <time>2019-06-13T14:48:11+02:00</time>
      </trkpt>
      <trkpt lat="44.80538" lon="1.59953">
        <ele>276</ele>
        <time>2019-06-13T14:48:31+02:00</time>
      </trkpt>
      <trkpt lat="44.80536" lon="1.59985">
        <ele>276</ele>
        <time>2019-06-13T14:48:50+02:00</time>
      </trkpt>
      <trkpt lat="44.80534" lon="1.60017">
        <ele>277</ele>
        <time>2019-06-13T14:49:10+02:00</time>
      </trkpt>
      <trkpt lat="44.80533" lon="1.60049">
        <ele>277</ele>
        <time>2019-06-13T14:49:31+02:00</time>
      </trkpt>
      <trkpt lat="44.80533" lon="1.60082">
        <ele>277</ele>
        <time>2019-06-13T14:49:51+02:00</time>
      </trkpt>
      <trkpt lat="44.80529" lon="1.60114">
        <ele>276</ele>
        <time>2019-06-13T14:50:13+02:00</time>
      </trkpt>
      <trkpt lat="44.80528" lon="1.60147">
        <ele>276</ele>
        <time>2019-06-13T14:50:33+02:00</time>
      </trkpt>
      <trkpt lat="44.80525" lon="1.6018">
        <ele>277</ele>
        <time>2019-06-13T14:50:54+02:00</time>
      </trkpt>
      <trkpt lat="44.80525" lon="1.60212">
        <ele>277</ele>
        <time>2019-06-13T14:51:15+02:00</time>
      </trkpt>
      <trkpt lat="44.80523" lon="1.60244">
        <ele>277</ele>
        <time>2019-06-13T14:51:33+02:00</time>
      </trkpt>
      <trkpt lat="44.80518" lon="1.60277">
        <ele>276</ele>
        <time>2019-06-13T14:51:52+02:00</time>
      </trkpt>
      <trkpt lat="44.80515" lon="1.60309">
        <ele>276</ele>
        <time>2019-06-13T14:52:14+02:00</time>
      </trkpt>
      <trkpt lat="44.80512" lon="1.60341">
        <ele>275</ele>
        <time>2019-06-13T14:52:32+02:00</time>
      </trkpt>
      <trkpt lat="44.80506" lon="1.60373">
        <ele>273</ele>
        <time>2019-06-13T14:52:52+02:00</time>
      </trkpt>
      <trkpt lat="44.80501" lon="1.60404">
        <ele>272</ele>
        <time>2019-06-13T14:53:13+02:00</time>
      </trkpt>
      <trkpt lat="44.80494" lon="1.60435">
        <ele>270</ele>
        <time>2019-06-13T14:54:07+02:00</time>
      </trkpt>
      <trkpt lat="44.80493" lon="1.60466">
        <ele>268</ele>
        <time>2019-06-13T14:54:33+02:00</time>
      </trkpt>
      <trkpt lat="44.80496" lon="1.60499">
        <ele>266</ele>
        <time>2019-06-13T14:54:56+02:00</time>
      </trkpt>
      <trkpt lat="44.80502" lon="1.60531">
        <ele>265</ele>
        <time>2019-06-13T14:55:16+02:00</time>
      </trkpt>
      <trkpt lat="44.80489" lon="1.60558">
        <ele>264</ele>
        <time>2019-06-13T14:55:35+02:00</time>
      </trkpt>
      <trkpt lat="44.80478" lon="1.60587">
        <ele>264</ele>
        <time>2019-06-13T14:55:54+02:00</time>
      </trkpt>
      <trkpt lat="44.80467" lon="1.60616">
        <ele>264</ele>
        <time>2019-06-13T14:56:14+02:00</time>
      </trkpt>
      <trkpt lat="44.80454" lon="1.60644">
        <ele>264</ele>
        <time>2019-06-13T14:56:37+02:00</time>
      </trkpt>
      <trkpt lat="44.80435" lon="1.60663">
        <ele>263</ele>
        <time>2019-06-13T14:56:57+02:00</time>
      </trkpt>
      <trkpt lat="44.80413" lon="1.60671">
        <ele>262</ele>
        <time>2019-06-13T14:57:15+02:00</time>
      </trkpt>
      <trkpt lat="44.80395" lon="1.6069">
        <ele>263</ele>
        <time>2019-06-13T14:57:39+02:00</time>
      </trkpt>
      <trkpt lat="44.80385" lon="1.60721">
        <ele>265</ele>
        <time>2019-06-13T14:58:04+02:00</time>
      </trkpt>
      <trkpt lat="44.80384" lon="1.60754">
        <ele>267</ele>
        <time>2019-06-13T14:58:25+02:00</time>
      </trkpt>
      <trkpt lat="44.80388" lon="1.60786">
        <ele>267</ele>
        <time>2019-06-13T14:58:45+02:00</time>
      </trkpt>
      <trkpt lat="44.80387" lon="1.60818">
        <ele>267</ele>
        <time>2019-06-13T14:59:05+02:00</time>
      </trkpt>
      <trkpt lat="44.80383" lon="1.60851">
        <ele>266</ele>
        <time>2019-06-13T14:59:26+02:00</time>
      </trkpt>
      <trkpt lat="44.80377" lon="1.60883">
        <ele>266</ele>
        <time>2019-06-13T14:59:48+02:00</time>
      </trkpt>
      <trkpt lat="44.80374" lon="1.60916">
        <ele>265</ele>
        <time>2019-06-13T15:00:11+02:00</time>
      </trkpt>
      <trkpt lat="44.80376" lon="1.60949">
        <ele>265</ele>
        <time>2019-06-13T15:00:32+02:00</time>
      </trkpt>
      <trkpt lat="44.80381" lon="1.6098">
        <ele>265</ele>
        <time>2019-06-13T15:02:08+02:00</time>
      </trkpt>
      <trkpt lat="44.8039" lon="1.61011">
        <ele>265</ele>
        <time>2019-06-13T15:02:31+02:00</time>
      </trkpt>
      <trkpt lat="44.80398" lon="1.61043">
        <ele>266</ele>
        <time>2019-06-13T15:02:52+02:00</time>
      </trkpt>
      <trkpt lat="44.80408" lon="1.61072">
        <ele>267</ele>
        <time>2019-06-13T15:03:16+02:00</time>
      </trkpt>
      <trkpt lat="44.8042" lon="1.611">
        <ele>267</ele>
        <time>2019-06-13T15:03:48+02:00</time>
      </trkpt>
      <trkpt lat="44.8043" lon="1.61129">
        <ele>268</ele>
        <time>2019-06-13T15:04:11+02:00</time>
      </trkpt>
      <trkpt lat="44.80444" lon="1.61155">
        <ele>268</ele>
        <time>2019-06-13T15:04:31+02:00</time>
      </trkpt>
      <trkpt lat="44.80452" lon="1.61184">
        <ele>270</ele>
        <time>2019-06-13T15:05:05+02:00</time>
      </trkpt>
      <trkpt lat="44.80454" lon="1.61216">
        <ele>270</ele>
        <time>2019-06-13T15:05:24+02:00</time>
      </trkpt>
      <trkpt lat="44.80452" lon="1.61248">
        <ele>271</ele>
        <time>2019-06-13T15:05:44+02:00</time>
      </trkpt>
      <trkpt lat="44.80439" lon="1.61275">
        <ele>271</ele>
        <time>2019-06-13T15:06:09+02:00</time>
      </trkpt>
      <trkpt lat="44.8042" lon="1.61294">
        <ele>271</ele>
        <time>2019-06-13T15:06:30+02:00</time>
      </trkpt>
      <trkpt lat="44.80402" lon="1.61315">
        <ele>271</ele>
        <time>2019-06-13T15:06:50+02:00</time>
      </trkpt>
      <trkpt lat="44.80383" lon="1.61335">
        <ele>270</ele>
        <time>2019-06-13T15:07:11+02:00</time>
      </trkpt>
      <trkpt lat="44.80365" lon="1.61353">
        <ele>270</ele>
        <time>2019-06-13T15:07:28+02:00</time>
      </trkpt>
      <trkpt lat="44.80348" lon="1.61375">
        <ele>270</ele>
        <time>2019-06-13T15:07:50+02:00</time>
      </trkpt>
      <trkpt lat="44.80331" lon="1.61397">
        <ele>270</ele>
        <time>2019-06-13T15:08:59+02:00</time>
      </trkpt>
      <trkpt lat="44.80323" lon="1.61428">
        <ele>270</ele>
        <time>2019-06-13T15:09:17+02:00</time>
      </trkpt>
      <trkpt lat="44.80308" lon="1.61452">
        <ele>269</ele>
        <time>2019-06-13T15:09:36+02:00</time>
      </trkpt>
      <trkpt lat="44.80291" lon="1.61475">
        <ele>269</ele>
        <time>2019-06-13T15:09:54+02:00</time>
      </trkpt>
      <trkpt lat="44.80279" lon="1.61503">
        <ele>269</ele>
        <time>2019-06-13T15:10:13+02:00</time>
      </trkpt>
      <trkpt lat="44.80266" lon="1.6153">
        <ele>268</ele>
        <time>2019-06-13T15:10:33+02:00</time>
      </trkpt>
      <trkpt lat="44.80252" lon="1.61555">
        <ele>268</ele>
        <time>2019-06-13T15:10:52+02:00</time>
      </trkpt>
      <trkpt lat="44.80238" lon="1.61582">
        <ele>267</ele>
        <time>2019-06-13T15:11:17+02:00</time>
      </trkpt>
      <trkpt lat="44.8023" lon="1.61612">
        <ele>267</ele>
        <time>2019-06-13T15:12:25+02:00</time>
      </trkpt>
      <trkpt lat="44.80221" lon="1.61642">
        <ele>268</ele>
        <time>2019-06-13T15:12:45+02:00</time>
      </trkpt>
      <trkpt lat="44.80213" lon="1.61674">
        <ele>267</ele>
        <time>2019-06-13T15:13:05+02:00</time>
      </trkpt>
      <trkpt lat="44.80204" lon="1.61704">
        <ele>267</ele>
        <time>2019-06-13T15:13:25+02:00</time>
      </trkpt>
      <trkpt lat="44.80194" lon="1.61734">
        <ele>265</ele>
        <time>2019-06-13T15:13:44+02:00</time>
      </trkpt>
      <trkpt lat="44.80173" lon="1.61719">
        <ele>264</ele>
        <time>2019-06-13T15:14:08+02:00</time>
      </trkpt>
      <trkpt lat="44.80157" lon="1.61695">
        <ele>264</ele>
        <time>2019-06-13T15:14:26+02:00</time>
      </trkpt>
      <trkpt lat="44.8014" lon="1.61673">
        <ele>263</ele>
        <time>2019-06-13T15:14:57+02:00</time>
      </trkpt>
      <trkpt lat="44.8012" lon="1.61658">
        <ele>262</ele>
        <time>2019-06-13T15:15:17+02:00</time>
      </trkpt>
      <trkpt lat="44.80098" lon="1.61654">
        <ele>260</ele>
        <time>2019-06-13T15:15:38+02:00</time>
      </trkpt>
      <trkpt lat="44.80074" lon="1.61657">
        <ele>258</ele>
        <time>2019-06-13T15:16:11+02:00</time>
      </trkpt>
      <trkpt lat="44.80051" lon="1.61661">
        <ele>256</ele>
        <time>2019-06-13T15:16:35+02:00</time>
      </trkpt>
      <trkpt lat="44.80029" lon="1.61665">
        <ele>252</ele>
        <time>2019-06-13T15:16:53+02:00</time>
      </trkpt>
      <trkpt lat="44.80006" lon="1.61665">
        <ele>249</ele>
        <time>2019-06-13T15:17:27+02:00</time>
      </trkpt>
      <trkpt lat="44.79996" lon="1.61637">
        <ele>254</ele>
        <time>2019-06-13T15:19:31+02:00</time>
      </trkpt>
      <trkpt lat="44.79994" lon="1.61605">
        <ele>258</ele>
        <time>2019-06-13T15:19:51+02:00</time>
      </trkpt>
      <trkpt lat="44.79994" lon="1.61572">
        <ele>258</ele>
        <time>2019-06-13T15:20:22+02:00</time>
      </trkpt>
      <trkpt lat="44.80002" lon="1.61541">
        <ele>257</ele>
        <time>2019-06-13T15:20:41+02:00</time>
      </trkpt>
      <trkpt lat="44.80023" lon="1.6153">
        <ele>256</ele>
        <time>2019-06-13T15:21:34+02:00</time>
      </trkpt>
      <trkpt lat="44.80038" lon="1.61554">
        <ele>257</ele>
        <time>2019-06-13T15:21:49+02:00</time>
      </trkpt>
      <trkpt lat="44.80051" lon="1.61582">
        <ele>259</ele>
        <time>2019-06-13T15:22:08+02:00</time>
      </trkpt>
      <trkpt lat="44.80065" lon="1.61609">
        <ele>260</ele>
        <time>2019-06-13T15:22:31+02:00</time>
      </trkpt>
      <trkpt lat="44.80084" lon="1.61627">
        <ele>260</ele>
        <time>2019-06-13T15:22:56+02:00</time>
      </trkpt>
      <trkpt lat="44.80107" lon="1.61633">
        <ele>262</ele>
        <time>2019-06-13T15:23:20+02:00</time>
      </trkpt>
      <trkpt lat="44.80129" lon="1.6164">
        <ele>263</ele>
        <time>2019-06-13T15:24:39+02:00</time>
      </trkpt>
      <trkpt lat="44.80134" lon="1.61673">
        <ele>263</ele>
        <time>2019-06-13T15:25:07+02:00</time>
      </trkpt>
      <trkpt lat="44.80111" lon="1.61674">
        <ele>260</ele>
        <time>2019-06-13T15:25:38+02:00</time>
      </trkpt>
      <trkpt lat="44.80089" lon="1.61666">
        <ele>259</ele>
        <time>2019-06-13T15:26:01+02:00</time>
      </trkpt>
      <trkpt lat="44.80066" lon="1.61663">
        <ele>257</ele>
        <time>2019-06-13T15:26:21+02:00</time>
      </trkpt>
      <trkpt lat="44.80043" lon="1.61667">
        <ele>254</ele>
        <time>2019-06-13T15:26:40+02:00</time>
      </trkpt>
      <trkpt lat="44.8002" lon="1.61669">
        <ele>250</ele>
        <time>2019-06-13T15:27:04+02:00</time>
      </trkpt>
      <trkpt lat="44.80042" lon="1.61662">
        <ele>254</ele>
        <time>2019-06-13T15:28:09+02:00</time>
      </trkpt>
      <trkpt lat="44.8006" lon="1.61682">
        <ele>252</ele>
        <time>2019-06-13T15:28:29+02:00</time>
      </trkpt>
      <trkpt lat="44.80038" lon="1.61672">
        <ele>251</ele>
        <time>2019-06-13T15:30:08+02:00</time>
      </trkpt>
      <trkpt lat="44.80016" lon="1.61674">
        <ele>248</ele>
        <time>2019-06-13T15:30:34+02:00</time>
      </trkpt>
      <trkpt lat="44.80038" lon="1.61678">
        <ele>249</ele>
        <time>2019-06-13T15:31:12+02:00</time>
      </trkpt>
      <trkpt lat="44.80055" lon="1.617">
        <ele>251</ele>
        <time>2019-06-13T15:31:43+02:00</time>
      </trkpt>
      <trkpt lat="44.80033" lon="1.61687">
        <ele>245</ele>
        <time>2019-06-13T15:32:14+02:00</time>
      </trkpt>
      <trkpt lat="44.80043" lon="1.61716">
        <ele>244</ele>
        <time>2019-06-13T15:32:43+02:00</time>
      </trkpt>
      <trkpt lat="44.80023" lon="1.61701">
        <ele>239</ele>
        <time>2019-06-13T15:33:12+02:00</time>
      </trkpt>
      <trkpt lat="44.80035" lon="1.61729">
        <ele>233</ele>
        <time>2019-06-13T15:33:37+02:00</time>
      </trkpt>
      <trkpt lat="44.80012" lon="1.61733">
        <ele>232</ele>
        <time>2019-06-13T15:34:19+02:00</time>
      </trkpt>
      <trkpt lat="44.79992" lon="1.61746">
        <ele>238</ele>
        <time>2019-06-13T15:34:43+02:00</time>
      </trkpt>
      <trkpt lat="44.80005" lon="1.6172">
        <ele>228</ele>
        <time>2019-06-13T15:36:35+02:00</time>
      </trkpt>
      <trkpt lat="44.79992" lon="1.61746">
        <ele>214</ele>
        <time>2019-06-13T15:37:19+02:00</time>
      </trkpt>
      <trkpt lat="44.80011" lon="1.61765">
        <ele>210</ele>
        <time>2019-06-13T15:38:43+02:00</time>
      </trkpt>
      <trkpt lat="44.79989" lon="1.61773">
        <ele>209</ele>
        <time>2019-06-13T15:39:18+02:00</time>
      </trkpt>
      <trkpt lat="44.80011" lon="1.61779">
        <ele>196</ele>
        <time>2019-06-13T15:40:20+02:00</time>
      </trkpt>
      <trkpt lat="44.80034" lon="1.61788">
        <ele>195</ele>
        <time>2019-06-13T15:40:38+02:00</time>
      </trkpt>
      <trkpt lat="44.80055" lon="1.618">
        <ele>197</ele>
        <time>2019-06-13T15:40:59+02:00</time>
      </trkpt>
      <trkpt lat="44.80075" lon="1.61814">
        <ele>197</ele>
        <time>2019-06-13T15:41:21+02:00</time>
      </trkpt>
      <trkpt lat="44.80097" lon="1.61827">
        <ele>199</ele>
        <time>2019-06-13T15:41:42+02:00</time>
      </trkpt>
      <trkpt lat="44.80115" lon="1.6185">
        <ele>197</ele>
        <time>2019-06-13T15:42:09+02:00</time>
      </trkpt>
      <trkpt lat="44.80127" lon="1.61877">
        <ele>192</ele>
        <time>2019-06-13T15:46:21+02:00</time>
      </trkpt>
      <trkpt lat="44.80139" lon="1.61904">
        <ele>194</ele>
        <time>2019-06-13T15:46:50+02:00</time>
      </trkpt>
      <trkpt lat="44.80143" lon="1.61936">
        <ele>185</ele>
        <time>2019-06-13T15:47:35+02:00</time>
      </trkpt>
      <trkpt lat="44.80121" lon="1.61931">
        <ele>172</ele>
        <time>2019-06-13T15:48:56+02:00</time>
      </trkpt>
      <trkpt lat="44.801" lon="1.61917">
        <ele>180</ele>
        <time>2019-06-13T15:49:31+02:00</time>
      </trkpt>
      <trkpt lat="44.80083" lon="1.61896">
        <ele>186</ele>
        <time>2019-06-13T15:49:58+02:00</time>
      </trkpt>
      <trkpt lat="44.80063" lon="1.61881">
        <ele>162</ele>
        <time>2019-06-13T15:50:16+02:00</time>
      </trkpt>
      <trkpt lat="44.8004" lon="1.61883">
        <ele>157</ele>
        <time>2019-06-13T16:20:54+02:00</time>
      </trkpt>
      <trkpt lat="44.80041" lon="1.61916">
        <ele>147</ele>
        <time>2019-06-13T16:22:18+02:00</time>
      </trkpt>
      <trkpt lat="44.8002" lon="1.61924">
        <ele>140</ele>
        <time>2019-06-13T16:22:45+02:00</time>
      </trkpt>
      <trkpt lat="44.79997" lon="1.61921">
        <ele>138</ele>
        <time>2019-06-13T16:24:03+02:00</time>
      </trkpt>
      <trkpt lat="44.79973" lon="1.61915">
        <ele>136</ele>
        <time>2019-06-13T16:24:34+02:00</time>
      </trkpt>
      <trkpt lat="44.7995" lon="1.61919">
        <ele>135</ele>
        <time>2019-06-13T16:25:03+02:00</time>
      </trkpt>
      <trkpt lat="44.79926" lon="1.61919">
        <ele>134</ele>
        <time>2019-06-13T16:25:20+02:00</time>
      </trkpt>
      <trkpt lat="44.79907" lon="1.619">
        <ele>134</ele>
        <time>2019-06-13T16:25:42+02:00</time>
      </trkpt>
    </trkseg>
  </trk>
</gpx>